Time;durP1;ratioP1;P1;durP2;ratioP2;P2;SDS_P1;SDS_P2;PMS_P1;PMS_P2;Temp;Humidity;BMP_temperature;BMP_pressure;BME280_temperature;BME280_humidity;BME280_pressure;Samples;Min_cycle;Max_cycle;Signal;HPM_P1;HPM_P2
2023/10/18 00:02:07;;;;;;;5.85;2.83;;;;;;;11.99;56.08;101186.09;5122426;28;20055;-63
2023/10/18 00:04:36;;;;;;;5.03;2.90;;;;;;;11.99;56.47;101180.72;5116303;28;20040;-63
2023/10/18 00:07:04;;;;;;;5.57;3.13;;;;;;;11.97;55.90;101180.94;5123427;28;20071;-62
2023/10/18 00:09:48;;;;;;;6.70;3.22;;;;;;;11.96;55.97;101181.16;5124568;28;20044;-62
2023/10/18 00:12:18;;;;;;;6.28;3.55;;;;;;;11.96;55.89;101176.59;5118614;28;20055;-63
2023/10/18 00:14:51;;;;;;;5.97;3.40;;;;;;;11.97;55.96;101174.72;5122644;28;20043;-62
2023/10/18 00:17:19;;;;;;;8.13;3.03;;;;;;;11.95;56.21;101172.25;5121783;28;20044;-62
2023/10/18 00:19:47;;;;;;;5.75;2.92;;;;;;;11.93;56.26;101168.94;5122559;28;20051;-62
2023/10/18 00:22:15;;;;;;;4.40;2.88;;;;;;;11.92;56.33;101170.00;5118349;28;20066;-62
2023/10/18 00:24:43;;;;;;;6.35;3.45;;;;;;;11.90;56.34;101164.00;5123421;28;20147;-62
2023/10/18 00:27:12;;;;;;;4.30;2.92;;;;;;;11.91;56.28;101172.91;5122925;28;20051;-62
2023/10/18 00:29:39;;;;;;;7.90;2.95;;;;;;;11.90;55.95;101169.41;5123162;28;20051;-64
2023/10/18 00:32:10;;;;;;;5.45;3.22;;;;;;;11.90;56.09;101172.09;5122945;28;20062;-64
2023/10/18 00:34:38;;;;;;;5.00;3.25;;;;;;;11.87;56.02;101161.75;5119678;28;20225;-62
2023/10/18 00:37:10;;;;;;;9.27;3.60;;;;;;;11.85;55.95;101171.13;5121144;28;20044;-62
2023/10/18 00:39:39;;;;;;;4.78;2.95;;;;;;;11.85;56.12;101165.72;5123507;28;20051;-62
2023/10/18 00:44:55;;;;;;;6.30;3.05;;;;;;;11.85;56.17;101166.53;5117934;28;20055;-63
2023/10/18 00:47:26;;;;;;;5.07;2.70;;;;;;;11.85;56.33;101173.81;5119790;28;20055;-63
2023/10/18 00:49:54;;;;;;;6.10;3.80;;;;;;;11.84;56.25;101164.91;5120226;28;20567;-64
2023/10/18 00:52:24;;;;;;;7.60;3.60;;;;;;;11.83;56.14;101155.19;5113653;28;20108;-64
2023/10/18 00:54:53;;;;;;;7.22;3.33;;;;;;;11.81;55.95;101153.75;5122235;28;20381;-63
2023/10/18 00:57:24;;;;;;;5.45;3.00;;;;;;;11.81;56.29;101148.38;5120900;28;20093;-64
2023/10/18 01:00:12;;;;;;;5.38;3.20;;;;;;;11.80;56.11;101139.47;5114619;28;20386;-64
2023/10/18 01:02:43;;;;;;;6.88;3.70;;;;;;;11.80;55.96;101133.25;5120928;28;20044;-63
2023/10/18 01:05:15;;;;;;;4.60;2.92;;;;;;;11.79;56.13;101132.44;5114790;28;20048;-63
2023/10/18 01:07:46;;;;;;;4.25;2.60;;;;;;;11.78;56.08;101124.56;5120920;28;20054;-64
2023/10/18 01:10:19;;;;;;;7.60;3.50;;;;;;;11.78;56.03;101125.41;5118294;28;20130;-63
2023/10/18 01:12:47;;;;;;;5.15;3.28;;;;;;;11.77;55.89;101115.69;5119037;28;20051;-63
2023/10/18 01:15:19;;;;;;;7.63;3.70;;;;;;;11.76;56.04;101110.47;5121587;28;20130;-63
2023/10/18 01:17:49;;;;;;;6.50;3.40;;;;;;;11.74;55.90;101108.00;5121008;28;20496;-63
2023/10/18 01:20:27;;;;;;;7.18;3.67;;;;;;;11.73;55.91;101112.56;5120153;28;20055;-62
2023/10/18 01:22:55;;;;;;;10.00;3.90;;;;;;;11.72;56.28;101102.84;5117354;28;20065;-62
2023/10/18 01:25:25;;;;;;;8.32;3.63;;;;;;;11.73;55.97;101095.59;5120252;28;20035;-62
2023/10/18 01:27:53;;;;;;;4.88;3.45;;;;;;;11.72;55.93;101094.78;5117411;28;20048;-63
2023/10/18 01:30:21;;;;;;;9.32;3.30;;;;;;;11.71;56.05;101090.44;5118698;28;20047;-63
2023/10/18 01:32:49;;;;;;;6.10;3.85;;;;;;;11.71;55.91;101092.31;5117356;28;20105;-63
2023/10/18 01:35:17;;;;;;;7.07;3.53;;;;;;;11.69;56.01;101095.22;5116403;28;20468;-62
2023/10/18 01:37:46;;;;;;;5.63;3.38;;;;;;;11.69;56.01;101097.91;5120624;28;20065;-63
2023/10/18 01:40:22;;;;;;;6.28;3.47;;;;;;;11.68;55.73;101093.56;5123185;28;20457;-63
2023/10/18 01:42:55;;;;;;;8.35;3.88;;;;;;;11.68;55.96;101080.09;5125315;28;20104;-63
2023/10/18 01:45:24;;;;;;;5.68;3.60;;;;;;;11.67;56.20;101075.78;5123033;28;20087;-62
2023/10/18 01:47:52;;;;;;;6.15;3.25;;;;;;;11.65;55.90;101069.78;5123098;28;20050;-62
2023/10/18 01:50:21;;;;;;;6.57;3.70;;;;;;;11.65;55.79;101068.97;5118743;28;20482;-62
2023/10/18 01:52:50;;;;;;;6.53;3.72;;;;;;;11.64;56.13;101068.13;5125987;28;20047;-63
2023/10/18 01:55:18;;;;;;;9.45;3.60;;;;;;;11.63;55.83;101055.72;5121458;28;20051;-63
2023/10/18 01:57:46;;;;;;;6.18;3.15;;;;;;;11.63;55.84;101054.91;5123880;28;20056;-62
2023/10/18 02:00:21;;;;;;;12.20;3.33;;;;;;;11.63;55.68;101052.22;5125192;28;20051;-62
2023/10/18 02:02:49;;;;;;;5.32;3.15;;;;;;;11.60;55.90;101055.34;5126281;28;20069;-62
2023/10/18 02:05:18;;;;;;;7.55;4.05;;;;;;;11.60;55.71;101047.28;5125779;28;20051;-62
2023/10/18 02:07:48;;;;;;;5.25;3.13;;;;;;;11.60;55.84;101049.97;5117710;28;20112;-62
2023/10/18 02:10:22;;;;;;;7.22;3.75;;;;;;;11.59;55.88;101049.13;5126081;28;20055;-63
2023/10/18 02:12:51;;;;;;;6.95;4.00;;;;;;;11.58;55.85;101034.03;5125208;28;20134;-62
2023/10/18 02:15:21;;;;;;;6.82;3.65;;;;;;;11.57;55.66;101032.38;5122679;28;20048;-62
2023/10/18 02:17:56;;;;;;;5.72;3.65;;;;;;;11.54;55.77;101034.72;5124568;28;20063;-63
2023/10/18 02:20:28;;;;;;;5.43;2.80;;;;;;;11.53;55.87;101030.38;5119673;28;20092;-63
2023/10/18 02:22:59;;;;;;;5.57;3.00;;;;;;;11.53;55.71;101033.88;5120368;28;20130;-63
2023/10/18 02:25:43;;;;;;;7.32;3.67;;;;;;;11.51;55.87;101041.38;5126124;28;20071;-63
2023/10/18 02:28:23;;;;;;;6.43;3.25;;;;;;;11.51;55.75;101040.53;5119144;28;20052;-63
2023/10/18 02:30:57;;;;;;;5.05;3.22;;;;;;;11.48;55.90;101044.50;5114979;28;20618;-63
2023/10/18 02:33:33;;;;;;;5.88;3.30;;;;;;;11.46;55.67;101041.22;5120081;28;20048;-63
2023/10/18 02:36:00;;;;;;;7.63;2.87;;;;;;;11.45;55.80;101034.19;5119605;28;20052;-63
2023/10/18 02:38:28;;;;;;;7.45;2.83;;;;;;;11.45;55.87;101028.78;5123727;28;20048;-62
2023/10/18 02:40:58;;;;;;;5.82;3.17;;;;;;;11.44;56.04;101024.47;5121454;28;20073;-63
2023/10/18 02:43:28;;;;;;;4.20;2.90;;;;;;;11.44;55.67;101013.69;5124290;28;20044;-62
2023/10/18 02:45:58;;;;;;;6.60;3.20;;;;;;;11.42;55.61;101005.03;5119218;28;20039;-63
2023/10/18 02:48:26;;;;;;;7.25;3.53;;;;;;;11.42;55.81;101021.16;5125926;28;20131;-63
2023/10/18 02:50:57;;;;;;;8.70;3.00;;;;;;;11.43;55.71;101009.34;5122309;28;20052;-63
2023/10/18 02:53:25;;;;;;;5.57;3.30;;;;;;;11.43;55.58;101008.53;5118941;28;20044;-63
2023/10/18 02:55:56;;;;;;;6.90;3.30;;;;;;;11.41;55.40;101001.50;5124849;28;20097;-62
2023/10/18 02:58:28;;;;;;;5.80;3.20;;;;;;;11.42;55.90;100996.94;5125566;28;20427;-63
2023/10/18 03:01:05;;;;;;;10.00;3.63;;;;;;;11.39;55.70;100998.22;5125316;28;20108;-63
2023/10/18 03:03:34;;;;;;;4.75;2.95;;;;;;;11.37;55.52;100994.94;5113341;28;20446;-63
2023/10/18 03:06:06;;;;;;;7.53;2.70;;;;;;;11.37;55.69;100989.53;5123328;28;20056;-63
2023/10/18 03:08:34;;;;;;;6.68;3.10;;;;;;;11.38;55.36;100984.97;5119163;28;20044;-63
2023/10/18 03:11:04;;;;;;;4.82;3.08;;;;;;;11.36;55.67;100979.00;5116230;28;20074;-63
2023/10/18 03:13:32;;;;;;;9.85;3.60;;;;;;;11.35;55.57;100974.66;5121584;28;20071;-63
2023/10/18 03:16:15;;;;;;;4.43;2.38;;;;;;;11.33;55.76;100971.38;5123093;28;20051;-63
2023/10/18 03:18:44;;;;;;;5.00;3.28;;;;;;;11.32;55.76;100975.13;5122185;28;20069;-63
2023/10/18 03:21:20;;;;;;;7.78;3.20;;;;;;;11.29;55.63;100967.50;5117650;28;20051;-63
2023/10/18 03:23:50;;;;;;;5.63;2.80;;;;;;;11.31;55.61;100965.41;5113663;28;20043;-63
2023/10/18 03:26:22;;;;;;;6.75;3.05;;;;;;;11.31;55.69;100968.09;5121447;28;20070;-63
2023/10/18 03:28:52;;;;;;;7.50;3.00;;;;;;;11.30;55.89;100971.81;5118574;28;20048;-63
2023/10/18 03:31:27;;;;;;;6.30;3.38;;;;;;;11.30;55.79;100964.56;5122244;28;20051;-63
2023/10/18 03:34:01;;;;;;;5.45;2.83;;;;;;;11.31;55.51;100960.00;5113458;28;20112;-63
2023/10/18 03:36:32;;;;;;;6.15;2.92;;;;;;;11.31;55.35;100957.31;5120555;28;20111;-62
2023/10/18 03:39:11;;;;;;;3.83;2.33;;;;;;;11.30;55.63;100950.31;5122578;28;20047;-62
2023/10/18 03:41:41;;;;;;;6.78;3.08;;;;;;;11.28;55.32;100936.25;5123106;28;20055;-63
2023/10/18 03:44:09;;;;;;;6.22;3.30;;;;;;;11.26;55.51;100931.09;5119857;28;20131;-62
2023/10/18 03:49:31;;;;;;;7.25;3.05;;;;;;;11.26;55.46;100925.72;5106139;28;20051;-62
2023/10/18 03:52:06;;;;;;;7.95;3.13;;;;;;;11.24;55.41;100922.44;5119800;28;20056;-63
2023/10/18 03:54:44;;;;;;;4.35;3.00;;;;;;;11.23;55.43;100920.78;5117626;28;20081;-62
2023/10/18 03:57:17;;;;;;;5.18;2.92;;;;;;;11.21;55.68;100917.50;5123125;28;20043;-63
2023/10/18 03:59:46;;;;;;;5.57;3.20;;;;;;;11.20;55.57;100917.72;5119616;28;20471;-63
2023/10/18 04:02:26;;;;;;;7.78;3.05;;;;;;;11.21;55.69;100911.28;5115036;28;20111;-63
2023/10/18 04:04:59;;;;;;;5.22;3.10;;;;;;;11.21;55.90;100911.28;5119139;28;20051;-63
2023/10/18 04:07:29;;;;;;;5.78;2.70;;;;;;;11.20;55.79;100905.09;5115687;28;20156;-62
2023/10/18 04:10:13;;;;;;;5.60;3.08;;;;;;;11.21;55.51;100920.19;5113459;28;20066;-63
2023/10/18 04:12:43;;;;;;;5.80;3.08;;;;;;;11.22;55.64;100904.88;5121918;28;20131;-63
2023/10/18 04:15:21;;;;;;;5.00;2.53;;;;;;;11.20;55.58;100891.63;5117261;28;20147;-63
2023/10/18 04:18:02;;;;;;;8.27;3.65;;;;;;;11.19;55.63;100898.06;5110002;28;20133;-63
2023/10/18 04:20:32;;;;;;;4.85;2.42;;;;;;;11.20;55.59;100896.19;5120270;28;20047;-63
2023/10/18 04:23:12;;;;;;;5.65;2.67;;;;;;;11.20;55.52;100886.25;5114157;28;20143;-63
2023/10/18 04:25:40;;;;;;;4.68;2.60;;;;;;;11.19;55.49;100881.94;5116811;28;20105;-63
2023/10/18 04:28:10;;;;;;;7.60;3.42;;;;;;;11.20;55.50;100880.06;5124098;28;20051;-63
2023/10/18 04:30:38;;;;;;;6.80;2.88;;;;;;;11.18;55.51;100879.47;5122852;28;20102;-63
2023/10/18 04:33:24;;;;;;;5.78;3.17;;;;;;;11.15;55.30;100878.03;5116984;28;20096;-63
2023/10/18 04:35:56;;;;;;;5.95;2.80;;;;;;;11.11;55.68;100876.84;5119790;28;20093;-63
2023/10/18 04:38:29;;;;;;;6.28;2.70;;;;;;;11.17;55.70;100885.88;5113953;28;20040;-63
2023/10/18 04:41:07;;;;;;;4.93;2.78;;;;;;;11.15;55.48;100866.47;5117769;28;20072;-63
2023/10/18 04:43:35;;;;;;;5.90;3.30;;;;;;;11.15;55.57;100874.53;5121734;28;20069;-63
2023/10/18 04:46:07;;;;;;;4.68;2.70;;;;;;;11.15;55.54;100871.84;5120451;28;20483;-63
2023/10/18 04:51:28;;;;;;;6.50;2.85;;;;;;;11.13;55.67;100872.06;5102527;28;20461;-64
2023/10/18 04:53:57;;;;;;;5.65;2.97;;;;;;;11.11;55.69;100867.97;5120301;28;20047;-63
2023/10/18 04:56:32;;;;;;;6.68;2.80;;;;;;;11.11;55.63;100851.81;5114479;28;20044;-63
2023/10/18 04:58:59;;;;;;;4.85;3.13;;;;;;;11.08;55.65;100845.84;5121924;28;20112;-63
2023/10/18 05:01:56;;;;;;;7.30;3.13;;;;;;;11.09;55.59;100846.66;5122893;28;20040;-63
2023/10/18 05:04:28;;;;;;;3.77;2.53;;;;;;;11.10;55.48;100842.94;5114053;28;20039;-63
2023/10/18 05:06:59;;;;;;;7.28;3.45;;;;;;;11.07;55.61;100838.81;5114071;28;20097;-63
2023/10/18 05:09:31;;;;;;;4.78;2.85;;;;;;;11.08;55.51;100832.41;5123133;28;20048;-63
2023/10/18 05:12:04;;;;;;;4.18;2.47;;;;;;;11.06;55.42;100825.59;5120608;28;20140;-63
2023/10/18 05:17:23;;;;;;;4.93;2.92;;;;;;;11.05;55.65;100821.25;5119716;28;20044;-62
2023/10/18 05:19:55;;;;;;;6.43;3.20;;;;;;;11.04;55.54;100816.94;5125812;28;20115;-62
2023/10/18 05:22:24;;;;;;;6.60;3.10;;;;;;;11.04;55.76;100822.31;5119476;28;20051;-62
2023/10/18 05:24:57;;;;;;;7.88;2.80;;;;;;;11.03;55.71;100818.81;5120269;28;20150;-63
2023/10/18 05:27:35;;;;;;;6.13;3.10;;;;;;;11.01;55.46;100820.91;5124342;28;20047;-63
2023/10/18 05:30:15;;;;;;;4.93;2.95;;;;;;;11.04;55.48;100819.63;5126505;28;20180;-63
2023/10/18 05:32:49;;;;;;;5.88;2.70;;;;;;;10.91;55.38;100796.41;5122928;28;20460;-64
2023/10/18 05:35:26;;;;;;;4.95;3.17;;;;;;;11.04;55.29;100825.00;5125641;28;20044;-63
2023/10/18 05:38:18;;;;;;;4.93;2.80;;;;;;;11.02;55.65;100814.47;4766829;28;10000046;-63
2023/10/18 05:40:56;;;;;;;5.60;2.78;;;;;;;11.02;55.58;100814.47;5122887;28;20652;-62
2023/10/18 05:43:23;;;;;;;6.78;3.17;;;;;;;11.00;55.56;100811.19;5115533;28;20044;-62
2023/10/18 05:45:56;;;;;;;9.05;3.20;;;;;;;11.00;55.65;100815.75;5122215;28;20408;-63
2023/10/18 05:48:25;;;;;;;6.10;3.05;;;;;;;10.99;55.75;100814.09;5119436;28;20440;-63
2023/10/18 05:51:01;;;;;;;5.60;2.90;;;;;;;10.98;55.62;100807.06;5120481;28;20516;-64
2023/10/18 05:53:30;;;;;;;5.43;3.00;;;;;;;10.96;55.60;100801.09;5122298;28;20062;-63
2023/10/18 05:55:58;;;;;;;4.78;2.88;;;;;;;10.96;55.74;100796.53;5121029;28;20540;-63
2023/10/18 05:58:32;;;;;;;4.85;3.17;;;;;;;10.93;55.76;100794.31;5116200;28;20036;-65
2023/10/18 06:01:02;;;;;;;8.85;3.70;;;;;;;10.94;55.65;100793.25;5111138;28;20059;-65
2023/10/18 06:03:39;;;;;;;6.03;3.38;;;;;;;10.91;55.57;100793.72;5120929;28;20055;-68
2023/10/18 06:06:09;;;;;;;8.35;3.33;;;;;;;10.84;55.64;100778.72;5114840;28;20066;-66
2023/10/18 06:08:37;;;;;;;5.00;3.13;;;;;;;10.93;55.57;100796.19;5114349;28;20047;-66
2023/10/18 06:11:08;;;;;;;6.75;3.30;;;;;;;10.91;55.64;100782.97;5120261;28;20047;-66
2023/10/18 06:13:37;;;;;;;7.47;3.45;;;;;;;10.93;55.54;100774.66;5113522;28;20056;-66
2023/10/18 06:16:18;;;;;;;7.25;3.83;;;;;;;10.91;55.56;100777.56;5108399;28;20044;-65
2023/10/18 06:18:48;;;;;;;7.60;3.50;;;;;;;10.90;55.69;100778.63;5110520;28;20457;-65
2023/10/18 06:21:19;;;;;;;5.30;3.30;;;;;;;10.90;55.51;100775.94;5112657;28;20069;-65
2023/10/18 06:23:55;;;;;;;8.88;3.30;;;;;;;10.90;55.56;100773.25;5113412;28;20044;-66
2023/10/18 06:26:30;;;;;;;5.90;3.25;;;;;;;10.91;55.51;100766.81;5119473;28;20060;-65
2023/10/18 06:29:08;;;;;;;7.35;3.40;;;;;;;10.75;55.43;100738.69;5120555;28;20043;-65
2023/10/18 06:31:40;;;;;;;5.63;3.30;;;;;;;10.86;55.46;100760.47;5121522;28;20151;-67
2023/10/18 06:34:15;;;;;;;7.15;3.33;;;;;;;10.92;55.52;100763.09;5119279;28;20173;-64
2023/10/18 06:36:47;;;;;;;7.65;3.92;;;;;;;10.94;55.41;100758.31;5115914;28;20109;-65
2023/10/18 06:39:24;;;;;;;6.80;3.20;;;;;;;10.94;55.51;100761.00;5120704;28;20050;-68
2023/10/18 06:41:54;;;;;;;5.40;3.03;;;;;;;10.93;55.54;100748.59;5119101;28;20246;-59
2023/10/18 06:44:27;;;;;;;9.45;3.90;;;;;;;10.77;55.84;100727.72;5110126;28;20048;-60
2023/10/18 06:46:55;;;;;;;5.97;3.00;;;;;;;10.92;55.65;100748.81;5117337;28;20371;-62
2023/10/18 06:49:26;;;;;;;4.28;2.90;;;;;;;10.93;55.36;100739.72;5117824;28;20047;-62
2023/10/18 06:51:56;;;;;;;9.13;3.13;;;;;;;10.92;55.55;100732.69;5118155;28;20048;-62
2023/10/18 06:54:30;;;;;;;5.95;3.47;;;;;;;10.75;55.38;100706.44;5115623;28;20051;-60
2023/10/18 06:57:09;;;;;;;9.15;3.75;;;;;;;10.92;55.65;100730.81;5113824;28;20048;-60
2023/10/18 06:59:37;;;;;;;10.68;4.45;;;;;;;10.90;55.60;100732.09;5114650;28;20552;-61
2023/10/18 07:02:06;;;;;;;6.20;3.35;;;;;;;10.89;55.38;100739.34;5116597;28;20046;-61
2023/10/18 07:04:38;;;;;;;5.97;3.58;;;;;;;10.89;55.75;100733.16;5120588;28;20085;-62
2023/10/18 07:07:13;;;;;;;8.68;3.42;;;;;;;10.82;55.51;100727.84;5118356;28;20055;-60
2023/10/18 07:09:42;;;;;;;5.57;3.60;;;;;;;10.88;55.60;100729.63;5119921;28;20074;-62
2023/10/18 07:12:12;;;;;;;5.63;3.38;;;;;;;10.89;55.64;100728.59;5120027;28;20602;-61
2023/10/18 07:14:41;;;;;;;5.35;2.78;;;;;;;10.89;55.62;100711.63;5110817;28;20119;-62
2023/10/18 07:17:10;;;;;;;4.97;3.10;;;;;;;10.92;55.78;100719.25;5118479;28;20039;-63
2023/10/18 07:19:47;;;;;;;4.93;3.38;;;;;;;10.85;55.44;100699.69;5116713;28;20101;-64
2023/10/18 07:22:21;;;;;;;6.70;3.50;;;;;;;10.87;55.56;100713.72;5112236;28;20244;-63
2023/10/18 07:24:54;;;;;;;6.53;3.35;;;;;;;10.86;55.80;100714.78;5115955;28;20056;-62
2023/10/18 07:27:29;;;;;;;12.00;3.72;;;;;;;10.88;55.44;100713.50;5110032;28;20288;-62
2023/10/18 07:29:59;;;;;;;7.32;3.45;;;;;;;10.89;55.85;100715.16;5109465;28;20067;-62
2023/10/18 07:32:28;;;;;;;6.10;3.38;;;;;;;10.88;55.76;100704.63;5121457;28;20070;-63
2023/10/18 07:35:00;;;;;;;6.20;3.05;;;;;;;10.86;55.64;100693.28;5118424;28;20052;-62
2023/10/18 07:37:41;;;;;;;5.80;3.63;;;;;;;10.76;55.68;100675.81;5115123;28;20047;-62
2023/10/18 07:40:11;;;;;;;7.20;2.85;;;;;;;10.87;55.66;100694.91;5117697;28;20123;-61
2023/10/18 07:42:43;;;;;;;6.65;3.90;;;;;;;10.85;55.74;100697.81;5115887;28;20115;-62
2023/10/18 07:45:14;;;;;;;7.07;3.08;;;;;;;10.85;56.03;100692.44;5120521;28;20062;-62
2023/10/18 07:47:43;;;;;;;5.70;3.10;;;;;;;10.85;55.70;100688.94;5123331;28;20051;-63
2023/10/18 07:52:55;;;;;;;5.93;2.88;;;;;;;10.87;55.65;100663.47;5121571;28;20047;-62
2023/10/18 07:55:23;;;;;;;6.00;3.10;;;;;;;10.86;55.80;100667.22;5125496;28;20495;-62
2023/10/18 07:57:54;;;;;;;7.43;3.30;;;;;;;10.84;55.70;100660.41;5122509;28;20079;-62
2023/10/18 08:00:23;;;;;;;4.82;3.03;;;;;;;10.86;55.54;100674.44;5115973;28;20075;-62
2023/10/18 08:02:50;;;;;;;5.50;2.88;;;;;;;10.90;55.81;100663.00;5124549;28;20492;-62
2023/10/18 08:05:21;;;;;;;8.30;3.33;;;;;;;11.05;55.39;100671.47;5113090;28;20077;-61
2023/10/18 08:07:51;;;;;;;7.50;3.25;;;;;;;11.21;55.03;100658.44;5115839;28;20067;-62
2023/10/18 08:10:21;;;;;;;9.60;4.07;;;;;;;11.41;54.61;100661.63;5119738;28;20052;-61
2023/10/18 08:13:03;;;;;;;5.75;2.78;;;;;;;11.57;54.12;100652.88;5123822;28;20064;-62
2023/10/18 08:15:35;;;;;;;7.07;3.05;;;;;;;11.62;53.39;100634.16;5123036;28;20162;-62
2023/10/18 08:18:14;;;;;;;9.88;3.13;;;;;;;11.78;53.09;100634.53;5123356;28;20461;-62
2023/10/18 08:20:56;;;;;;;9.45;2.83;;;;;;;12.13;52.66;100647.97;5117803;28;20048;-63
2023/10/18 08:23:36;;;;;;;6.18;3.13;;;;;;;12.30;52.25;100644.25;5116592;28;20130;-61
2023/10/18 08:26:06;;;;;;;9.48;3.97;;;;;;;12.24;51.70;100639.00;5118920;28;20180;-63
2023/10/18 08:28:39;;;;;;;9.75;3.17;;;;;;;12.32;52.33;100630.56;5118326;28;20047;-61
2023/10/18 08:31:17;;;;;;;8.02;3.53;;;;;;;12.58;51.82;100630.00;5121730;28;20112;-62
2023/10/18 08:33:45;;;;;;;7.45;3.58;;;;;;;12.76;50.81;100625.47;5117502;28;20147;-62
2023/10/18 08:36:14;;;;;;;9.43;3.20;;;;;;;12.85;50.95;100624.84;5122461;28;20078;-62
2023/10/18 08:38:44;;;;;;;7.82;3.40;;;;;;;12.95;50.95;100622.31;5122744;28;20123;-62
2023/10/18 08:41:16;;;;;;;7.30;3.55;;;;;;;12.98;50.40;100621.84;5123408;28;20051;-62
2023/10/18 08:44:06;;;;;;;7.47;3.10;;;;;;;13.04;50.29;100617.34;5113456;28;20048;-62
2023/10/18 08:46:41;;;;;;;6.75;3.00;;;;;;;13.00;50.41;100614.31;5112816;28;20074;-62
2023/10/18 08:49:12;;;;;;;5.03;2.80;;;;;;;12.90;50.67;100618.72;5122585;28;20075;-61
2023/10/18 08:51:44;;;;;;;8.35;3.00;;;;;;;12.73;51.18;100625.97;5118026;28;20052;-63
2023/10/18 08:54:19;;;;;;;6.22;3.60;;;;;;;12.53;51.70;100616.41;5110522;28;20054;-63
2023/10/18 08:56:49;;;;;;;6.97;3.30;;;;;;;12.36;52.38;100619.06;5115011;28;20116;-63
2023/10/18 08:59:19;;;;;;;5.60;2.92;;;;;;;12.27;52.56;100607.00;5116896;28;20051;-64
2023/10/18 09:04:31;;;;;;;4.05;2.72;;;;;;;12.15;53.62;100597.31;5107193;28;20155;-63
2023/10/18 09:07:05;;;;;;;7.38;3.17;;;;;;;12.06;53.65;100594.22;5104188;28;20051;-62
2023/10/18 09:09:35;;;;;;;5.10;2.55;;;;;;;12.03;53.75;100592.00;5113495;28;20130;-63
2023/10/18 09:12:14;;;;;;;6.18;2.97;;;;;;;11.96;53.98;100577.84;5114615;28;20055;-62
2023/10/18 09:14:50;;;;;;;5.40;2.72;;;;;;;11.92;54.25;100569.41;5102251;28;20086;-63
2023/10/18 09:17:22;;;;;;;4.85;2.40;;;;;;;11.90;54.37;100573.41;5113151;28;20146;-63
2023/10/18 09:19:55;;;;;;;7.55;3.35;;;;;;;11.88;54.50;100567.44;5111538;28;20401;-62
2023/10/18 09:22:23;;;;;;;7.80;2.83;;;;;;;11.83;55.04;100562.75;5113426;28;20390;-62
2023/10/18 09:24:54;;;;;;;6.18;2.53;;;;;;;11.81;54.53;100561.38;5118342;28;20090;-63
2023/10/18 09:27:27;;;;;;;6.60;2.50;;;;;;;11.84;55.15;100566.28;5119917;28;20048;-63
2023/10/18 09:29:55;;;;;;;4.68;3.15;;;;;;;11.85;54.95;100559.84;5112024;28;20107;-62
2023/10/18 09:32:33;;;;;;;7.18;2.67;;;;;;;11.83;55.38;100552.00;5115795;28;20052;-62
2023/10/18 09:35:07;;;;;;;3.97;2.45;;;;;;;11.79;55.21;100547.31;5118011;28;20053;-62
2023/10/18 09:37:39;;;;;;;4.93;2.80;;;;;;;11.79;55.30;100548.13;5114974;28;20050;-64
2023/10/18 09:40:11;;;;;;;4.45;2.53;;;;;;;11.79;55.38;100539.25;5118436;28;20100;-64
2023/10/18 09:42:41;;;;;;;5.05;2.92;;;;;;;11.76;55.43;100534.31;5117242;28;20484;-65
2023/10/18 09:45:09;;;;;;;5.72;2.78;;;;;;;11.77;55.79;100533.25;5113131;28;20078;-63
2023/10/18 09:47:38;;;;;;;9.82;3.13;;;;;;;11.78;55.53;100524.13;5117735;28;20064;-63
2023/10/18 09:50:09;;;;;;;5.05;2.75;;;;;;;11.75;55.83;100522.72;5116055;28;20040;-64
2023/10/18 09:52:47;;;;;;;6.05;3.00;;;;;;;11.74;56.25;100510.31;5117169;28;20100;-63
2023/10/18 09:55:20;;;;;;;7.50;3.20;;;;;;;11.76;55.96;100513.56;5108548;28;20524;-64
2023/10/18 09:58:02;;;;;;;5.82;2.70;;;;;;;11.77;55.94;100503.63;5118080;28;20085;-62
2023/10/18 10:00:33;;;;;;;6.28;2.70;;;;;;;11.77;56.21;100496.41;5122442;28;20043;-62
2023/10/18 10:03:08;;;;;;;5.28;2.63;;;;;;;11.77;56.05;100500.94;5103996;28;20048;-62
2023/10/18 10:05:43;;;;;;;5.47;2.95;;;;;;;11.79;56.23;100493.47;5110290;28;20121;-62
2023/10/18 10:08:11;;;;;;;5.05;2.75;;;;;;;11.77;56.47;100485.63;5117022;28;20115;-62
2023/10/18 10:10:47;;;;;;;6.90;3.08;;;;;;;11.80;56.38;100477.06;5121506;28;20049;-62
2023/10/18 10:13:19;;;;;;;9.23;2.90;;;;;;;11.79;56.51;100474.63;5119563;28;20054;-63
2023/10/18 10:15:54;;;;;;;8.70;3.72;;;;;;;11.77;56.78;100479.41;5122008;28;20512;-62
2023/10/18 10:18:26;;;;;;;5.05;2.78;;;;;;;11.79;56.82;100475.44;5121490;28;20058;-63
2023/10/18 10:20:56;;;;;;;6.00;2.92;;;;;;;11.80;57.13;100469.00;5116423;28;20056;-61
2023/10/18 10:23:26;;;;;;;6.93;2.70;;;;;;;11.86;56.94;100472.63;5118535;28;20091;-62
2023/10/18 10:26:08;;;;;;;6.32;2.80;;;;;;;11.90;56.74;100461.13;5119387;28;20084;-62
2023/10/18 10:29:33;;;;;;;6.28;2.67;;;;;;;11.93;56.96;100454.44;5116153;28;20061;-61
2023/10/18 10:32:04;;;;;;;6.70;2.97;;;;;;;11.90;57.10;100447.66;5116141;28;20108;-62
2023/10/18 10:34:37;;;;;;;6.95;3.40;;;;;;;11.93;57.19;100438.28;5122442;28;20070;-61
2023/10/18 10:37:10;;;;;;;6.80;3.92;;;;;;;12.00;56.97;100436.25;5118214;28;20044;-63
2023/10/18 10:39:45;;;;;;;5.40;3.60;;;;;;;12.05;57.19;100439.03;5126857;28;20060;-62
2023/10/18 10:42:28;;;;;;;9.95;3.55;;;;;;;12.04;56.84;100424.75;5124287;28;20075;-63
2023/10/18 10:45:02;;;;;;;8.55;3.65;;;;;;;12.04;57.43;100427.47;5107418;28;20055;-62
2023/10/18 10:47:42;;;;;;;5.15;3.10;;;;;;;12.05;57.16;100410.25;5125443;28;20043;-62
2023/10/18 10:50:12;;;;;;;8.13;3.20;;;;;;;12.09;57.64;100410.56;5126062;28;20069;-62
2023/10/18 10:52:44;;;;;;;8.85;3.85;;;;;;;12.09;57.10;100404.38;5123892;28;20043;-63
2023/10/18 10:55:21;;;;;;;7.32;2.97;;;;;;;12.10;57.18;100393.34;5125269;28;20050;-63
2023/10/18 10:57:50;;;;;;;9.75;3.50;;;;;;;12.11;57.62;100399.56;5119309;28;20126;-63
2023/10/18 11:00:36;;;;;;;7.22;3.30;;;;;;;12.12;57.23;100385.84;5124851;28;20073;-61
2023/10/18 11:03:52;;;;;;;9.50;3.95;;;;;;;12.10;57.44;100376.38;5119406;28;20058;-62
2023/10/18 11:06:23;;;;;;;8.00;3.33;;;;;;;12.09;57.93;100372.03;5030303;28;20077;-62
2023/10/18 11:08:52;;;;;;;7.13;3.33;;;;;;;11.95;57.70;100344.59;5039798;28;20064;-62
2023/10/18 11:11:21;;;;;;;6.22;2.95;;;;;;;12.14;58.22;100375.59;5040775;28;20045;-62
2023/10/18 11:13:49;;;;;;;6.88;3.53;;;;;;;12.15;58.04;100358.38;5041055;28;20050;-62
2023/10/18 11:16:20;;;;;;;5.22;3.42;;;;;;;12.30;57.91;100364.03;5034764;28;20054;-62
2023/10/18 11:18:49;;;;;;;5.85;2.70;;;;;;;12.36;57.49;100354.16;5038924;28;20049;-62
2023/10/18 11:21:22;;;;;;;8.65;3.63;;;;;;;12.38;57.43;100347.44;5035613;28;20096;-63
2023/10/18 11:23:51;;;;;;;7.45;3.38;;;;;;;12.41;57.71;100342.63;5038813;28;20045;-63
2023/10/18 11:26:24;;;;;;;7.90;3.38;;;;;;;12.30;57.89;100312.84;5042120;28;20079;-61
2023/10/18 11:28:56;;;;;;;6.95;3.33;;;;;;;12.48;57.85;100327.09;5034994;28;20052;-62
2023/10/18 11:31:27;;;;;;;10.88;4.18;;;;;;;12.48;57.75;100324.41;5036019;28;20049;-62
2023/10/18 11:33:59;;;;;;;8.65;3.63;;;;;;;12.51;57.65;100323.91;5041808;28;20045;-62
2023/10/18 11:36:28;;;;;;;8.07;3.75;;;;;;;12.53;57.74;100328.00;5038292;28;20061;-62
2023/10/18 11:39:18;;;;;;;8.35;3.40;;;;;;;12.59;57.87;100308.13;5039217;28;20041;-61
2023/10/18 11:41:52;;;;;;;9.95;3.80;;;;;;;12.64;58.12;100310.09;5121327;28;20043;-61
2023/10/18 11:44:29;;;;;;;8.90;4.53;;;;;;;12.70;57.38;100292.91;5117075;28;20051;-62
2023/10/18 11:47:08;;;;;;;9.93;3.80;;;;;;;12.76;58.14;100283.84;5124042;28;20485;-62
2023/10/18 11:49:38;;;;;;;5.93;3.47;;;;;;;12.78;57.22;100276.31;5124142;28;20047;-62
2023/10/18 11:52:14;;;;;;;7.15;3.65;;;;;;;12.82;57.63;100269.34;5109419;28;20051;-62
2023/10/18 11:54:43;;;;;;;5.80;3.95;;;;;;;12.82;57.64;100260.44;5122456;28;20081;-62
2023/10/18 11:57:29;;;;;;;8.93;3.60;;;;;;;12.82;57.74;100258.56;5121130;28;20051;-62
2023/10/18 12:00:20;;;;;;;7.50;3.17;;;;;;;12.84;57.87;100267.22;5122977;28;20056;-62
2023/10/18 12:02:48;;;;;;;8.85;3.58;;;;;;;12.87;57.58;100268.59;5116908;28;20044;-62
2023/10/18 12:05:23;;;;;;;8.13;3.05;;;;;;;12.76;57.64;100245.25;5110739;28;20056;-62
2023/10/18 12:07:53;;;;;;;8.07;3.20;;;;;;;12.78;57.63;100233.16;5114131;28;20078;-62